Polarstern — DBLK — position and weather

sailwx.info

Track history (hours):
 
Tides and Currents Weather Stations Pressure Air Temp Water Temp Dewpoint Dewpoint Depression Visibility Wind Speed Wind Dir Waves Ship Positions

Oceanographic research ship Polarstern (Germany)

Detailed information on ship capabilities available from University of Delaware's Ocean Information Center and ARCUS's ALIAS (Arctic Logistics Information and Support) project.

Last reported at 2020-Jul-05 22:00 UTC. Time now 2020-Jul-05 23:14 UTC.
Position N 81°42' E 005°48'.

Length 117.9 m; beam 25 m; draft 10.7 m.

Type: Other ship. MMSI: 211202460.

Wind from 050 at 17 knots

Barometer 1012.5 mb
Air temperature 0.4 ° C
Dewpoint 0.4 ° C
Water temperature -1.7 ° C

Date/timePositionNaut miles runAvg speedWind from/ knotsBaromVisibWave heightAir tempDewpointWater temp
2020-Jul-05 22:00N 81°42' E 005°48'0 0.0 050 / 171012.5 0.4 0.4-1.7
2020-Jul-05 21:00N 81°42' E 005°48'0 0.0 050 / 161012.2 0.7 0.1-1.7
2020-Jul-05 20:00N 81°42' E 005°48'1 0.9 050 / 161012.7 0.6 0.5-1.7
2020-Jul-05 19:00N 81°42' E 005°54'1 0.9 030 / 171012.5 0.5 0.4-1.6
2020-Jul-05 18:00N 81°42' E 006°00'0 0.0 040 / 171013.0 5.4 0.4 0.4-1.7
2020-Jul-05 17:00N 81°42' E 006°00'1 0.9 040 / 171013.4 0.3 0.1-1.7
2020-Jul-05 16:00N 81°42' E 006°06'0 0.0 040 / 161013.6 0.3 0.1-1.7
2020-Jul-05 15:00N 81°42' E 006°06'1 0.9 040 / 171014.010.8 0.4 0.1-1.6
2020-Jul-05 14:00N 81°42' E 006°12'0 0.0 040 / 161014.3 0.5-0.0-1.6
2020-Jul-05 13:00N 81°42' E 006°12'1 0.9 020 / 161014.7 0.2 0.1-1.6
2020-Jul-05 12:00N 81°42' E 006°18'0 0.0 030 / 171015.4 0.5 0.2 0.2-1.6
2020-Jul-05 11:00N 81°42' E 006°18'0 0.0 030 / 171015.8 0.4 0.4-1.7
2020-Jul-05 10:00N 81°42' E 006°18'1 0.9 030 / 161016.2 0.2 0.2-1.7
2020-Jul-05 09:00N 81°42' E 006°24'0 0.0 050 / 121016.2 0.3 0.2 0.2-1.7
2020-Jul-05 08:00N 81°42' E 006°24'1 0.9 050 / 141016.7 0.3-0.1-1.6
2020-Jul-05 07:00N 81°42' E 006°30'0 0.0 050 / 171016.9 -0.2-0.2-1.6
2020-Jul-05 06:00N 81°42' E 006°30'1 0.9 050 / 161016.9 2.2 0.4-0.2-1.7
2020-Jul-05 05:00N 81°42' E 006°36'0 0.0 050 / 171017.2 -0.6-0.6-1.6
2020-Jul-05 04:00N 81°42' E 006°36'0 0.0 050 / 141017.1 -1.4-1.6-1.7
2020-Jul-05 03:00N 81°42' E 006°36'1 0.9 050 / 121017.3 -1.1-1.6-1.6
2020-Jul-05 02:00N 81°42' E 006°30'0 0.0 050 / 101017.3 -1.4-1.4-1.6
2020-Jul-05 01:00N 81°42' E 006°30'0 0.0 050 / 101017.0 0.2-0.3-1.6
2020-Jul-05 00:00N 81°42' E 006°30'0 0.0 060 / 61016.8 1.3-0.1-1.7
2020-Jul-04 23:00N 81°42' E 006°30'0 0.0 090 / 81017.0 0.1-0.1-1.7
2020-Jul-04 22:00N 81°42' E 006°30'0 0.0 100 / 101016.9 0.2 0.2-1.7
2020-Jul-04 21:00N 81°42' E 006°30'1 0.9 090 / 81016.3 0.2 0.2-1.7
2020-Jul-04 20:00N 81°42' E 006°36'0 0.0 090 / 101015.7 0.3 0.3-1.6
2020-Jul-04 19:00N 81°42' E 006°36'0 0.0 110 / 101014.9 0.4 0.4-1.7
2020-Jul-04 18:00N 81°42' E 006°36'0 0.0 120 / 101014.210.8 0.6 0.6-1.7
2020-Jul-04 17:00N 81°42' E 006°36'0 0.0 130 / 121013.8 0.6 0.6-1.7
2020-Jul-04 16:00N 81°42' E 006°36'1 0.9 130 / 121012.8 0.3 0.3-1.7
2020-Jul-04 15:00N 81°42' E 006°42'0 0.0 130 / 121012.1 5.4 0.5 0.5-1.7
2020-Jul-04 14:00N 81°42' E 006°42'0 0.0 140 / 121011.3 0.4 0.4-1.7
2020-Jul-04 13:00N 81°42' E 006°42'0 0.0 130 / 121010.6 0.2 0.2-1.7
2020-Jul-04 12:00N 81°42' E 006°42'0 0.0 130 / 141009.2 5.4 0.2 0.2-1.7
2020-Jul-04 11:00N 81°42' E 006°42'1 0.9 110 / 141008.2 0.6 0.6-1.7
2020-Jul-04 10:00N 81°42' E 006°48'0 0.0 100 / 161007.1 0.8 0.8-1.6
2020-Jul-04 09:00N 81°42' E 006°48'1 0.9 080 / 171006.710.8 0.3 0.3-1.7
2020-Jul-04 08:00N 81°42' E 006°54'0 0.0 080 / 171006.2 0.1 0.1-1.7
2020-Jul-04 07:00N 81°42' E 006°54'0 0.0 080 / 171006.3 0.2 0.2-1.7
2020-Jul-04 06:00N 81°42' E 006°54'1 0.9 080 / 161006.010.8 0.3 0.3-1.7
2020-Jul-04 05:00N 81°42' E 007°00'0 0.0 080 / 161005.9 0.1 0.1-1.7
2020-Jul-04 04:00N 81°42' E 007°00'0 0.0 080 / 161005.9 -0.1-0.1-1.7
2020-Jul-04 03:00N 81°42' E 007°00'0 0.0 080 / 161006.0 -0.2-0.2-1.6
2020-Jul-04 02:00N 81°42' E 007°00'0 0.0 080 / 161005.9 -0.2-0.2-1.6
2020-Jul-04 01:00N 81°42' E 007°00'0 0.0 080 / 171005.8 -0.1-0.1-1.7
2020-Jul-04 00:00N 81°42' E 007°00'0 0.0 080 / 191005.0 -0.2-0.2-1.7
2020-Jul-03 23:00N 81°42' E 007°00'1 0.9 080 / 171004.9 -0.0-0.0-1.7
2020-Jul-03 22:00N 81°42' E 007°06'0 0.0 080 / 211004.7 0.1 0.1-1.7
2020-Jul-03 21:00N 81°42' E 007°06'0 0.0 080 / 171004.3 0.2 0.2-1.7
2020-Jul-03 20:00N 81°42' E 007°06'1 0.9 080 / 171004.0 0.3 0.3-1.7
2020-Jul-03 19:00N 81°42' E 007°12'0 0.0 080 / 171003.6 0.1 0.1-1.7
2020-Jul-03 18:00N 81°42' E 007°12'1 0.9 080 / 171003.2 0.3 0.1 0.1-1.7
2020-Jul-03 17:00N 81°42' E 007°18'0 0.0 080 / 231002.8 -0.0-0.0-1.7
2020-Jul-03 16:00N 81°42' E 007°18'1 0.9 080 / 191002.4 0.1 0.1-1.7
2020-Jul-03 15:00N 81°42' E 007°24'0 0.0 070 / 171002.3 0.3 0.2 0.2-1.7
2020-Jul-03 14:00N 81°42' E 007°24'1 0.9 070 / 191002.3 0.3 0.3-1.7
2020-Jul-03 13:00N 81°42' E 007°30'0 0.0 060 / 211002.0 0.4 0.3-1.7
2020-Jul-03 12:00N 81°42' E 007°30'1 0.9 050 / 211001.810.8 0.5 0.3-1.7
2020-Jul-03 11:00N 81°42' E 007°36'1 0.9 050 / 211001.9 0.5 0.1-1.7
2020-Jul-03 10:00N 81°42' E 007°42'0 0.0 050 / 211002.0 1.1 0.5-1.7
2020-Jul-03 09:00N 81°42' E 007°42'1 0.9 050 / 211002.2 1.1 0.9 0.8-1.7
2020-Jul-03 08:00N 81°42' E 007°48'0 0.0 040 / 211002.2 0.5 0.3-1.7
2020-Jul-03 07:00N 81°42' E 007°48'1 0.9 030 / 211002.6 0.2 0.2-1.6
2020-Jul-03 06:00N 81°42' E 007°54'0 0.0 040 / 191002.9 0.5 0.2 0.1-1.7
2020-Jul-03 05:00N 81°42' E 007°54'1 0.9 040 / 191003.1 0.2-0.0-1.7
2020-Jul-03 04:00N 81°42' E 008°00'0 0.0 050 / 171003.2 0.2 0.2-1.7
2020-Jul-03 03:00N 81°42' E 008°00'0 0.0 050 / 171003.3 0.6 0.2-1.7
2020-Jul-03 02:00N 81°42' E 008°00'0 0.0 050 / 171003.4 0.8 0.5-1.7
2020-Jul-03 01:00N 81°42' E 008°00'0 0.0 050 / 191003.4 0.4 0.4-1.6
2020-Jul-03 00:00N 81°42' E 008°00'0 0.0 050 / 171003.7 0.5 0.4-1.6
2020-Jul-02 23:00N 81°42' E 008°00'1 0.9 050 / 171003.8 0.3 0.3-1.6
2020-Jul-02 22:00N 81°42' E 008°06'0 0.0 050 / 171003.7 0.4 0.4-1.6
2020-Jul-02 21:00N 81°42' E 008°06'0 0.0 040 / 161003.8 0.2 0.2-1.6
2020-Jul-02 20:00N 81°42' E 008°06'1 0.9 030 / 161004.1 -0.0-0.0-1.6
2020-Jul-02 19:00N 81°42' E 008°12'0 0.0 020 / 171004.3 -0.0-0.0-1.6
2020-Jul-02 18:00N 81°42' E 008°12'1 0.9 010 / 171004.7 5.4 -0.1-0.3-1.6
2020-Jul-02 17:00N 81°42' E 008°18'0 0.0 010 / 171005.1 -0.1-0.2-1.6
2020-Jul-02 16:00N 81°42' E 008°18'1 0.9 360 / 171005.3 -0.2-0.2-1.6
2020-Jul-02 15:00N 81°42' E 008°24'0 0.0 360 / 161005.8 5.4 -0.3-0.3-1.7
2020-Jul-02 14:00N 81°42' E 008°24'0 0.0 360 / 161006.1 -0.5-0.6-1.7
2020-Jul-02 13:00N 81°42' E 008°24'1 0.9 360 / 161006.7 -0.9-1.2-1.7
2020-Jul-02 12:00N 81°42' E 008°30'0 0.0 360 / 161007.0 5.4 -1.0-1.4-1.7
2020-Jul-02 11:00N 81°42' E 008°30'0 0.0 360 / 161007.6 -1.4-1.8-1.7
2020-Jul-02 10:00N 81°42' E 008°30'1 0.9 360 / 161008.0 -1.6-2.0-1.7
2020-Jul-02 09:00N 81°42' E 008°36'0 0.0 010 / 161008.2 5.4 -1.8-2.3-1.7
2020-Jul-02 08:00N 81°42' E 008°36'0 0.0 010 / 161008.4 -2.1-2.5-1.7
2020-Jul-02 07:00N 81°42' E 008°36'6 6.0 010 / 161008.7 -2.8-3.1-1.7
2020-Jul-02 06:00N 81°48' E 008°36'1 0.9 010 / 141008.5 0.5 -3.1-3.5-1.7
2020-Jul-02 05:00N 81°48' E 008°42'0 0.0 010 / 121008.4 -2.8-3.1-1.6
2020-Jul-02 04:00N 81°48' E 008°42'0 0.0 010 / 101008.5 -3.2-3.5-1.6
2020-Jul-02 03:00N 81°48' E 008°42'0 0.0 020 / 121008.7 -3.3-3.5-1.6
2020-Jul-02 02:00N 81°48' E 008°42'0 0.0 010 / 101008.8 -2.8-3.2-1.7
2020-Jul-02 01:00N 81°48' E 008°42'0 0.0 020 / 101009.0 -2.4-2.5-1.7
2020-Jul-02 00:00N 81°48' E 008°42'0 0.0 040 / 121009.3 -1.7-2.1-1.6
2020-Jul-01 23:00N 81°48' E 008°42'0 0.0 010 / 101009.5 -2.1-2.4-1.6
2020-Jul-01 22:00N 81°48' E 008°42'0 0.0 010 / 81009.4 -1.9-2.0-1.7
2020-Jul-01 21:00N 81°48' E 008°42'0 0.0 030 / 101009.5 -1.4-1.6-1.7
2020-Jul-01 20:00N 81°48' E 008°42'1 0.9 010 / 61009.4 -1.2-1.6-1.7
2020-Jul-01 19:00N 81°48' E 008°48'0 0.0 360 / 61009.1 -0.9-1.2-1.7
2020-Jul-01 18:00N 81°48' E 008°48'0 0.0 060 / 41008.827.0 -0.6-1.3-1.7
2020-Jul-01 17:00N 81°48' E 008°48'0 0.0 060 / 41009.2 -0.1-1.0-1.7
2020-Jul-01 16:00N 81°48' E 008°48'0 0.0 030 / 41009.5 -0.4-1.1-1.7
2020-Jul-01 15:00N 81°48' E 008°48'1 0.9 020 / 61009.427.0 -0.4-0.9-1.7
2020-Jul-01 14:00N 81°48' E 008°54'0 0.0 330 / 61009.8 -0.3-0.9-1.7
2020-Jul-01 13:00N 81°48' E 008°54'0 0.0 340 / 21009.7 -0.1-0.8-1.7
2020-Jul-01 12:00N 81°48' E 008°54'0 0.0 330 / 21009.727.0 -0.1-1.1-1.7
2020-Jul-01 11:00N 81°48' E 008°54'0 0.0 090 / 41009.9 -0.6-1.3-1.7
2020-Jul-01 10:00N 81°48' E 008°54'0 0.0 320 / 61009.8 -0.7-1.1-1.7
2020-Jul-01 09:00N 81°48' E 008°54'0 0.0 360 / 41009.827.0 -0.9-1.2-1.7
2020-Jul-01 08:00N 81°48' E 008°54'0 0.0 360 / 41010.0 -1.2-1.7-1.7
2020-Jul-01 07:00N 81°48' E 008°54'0 0.0 020 / 41010.5 -1.3-1.7-1.7
2020-Jul-01 06:00N 81°48' E 008°54'0 0.0 340 / 41010.427.0 -1.3-1.8-1.7
2020-Jul-01 05:00N 81°48' E 008°54'0 0.0 330 / 41010.7 -1.3-2.1-1.7
2020-Jul-01 04:00N 81°48' E 008°54'0 0.0 340 / 41011.0 -1.4-1.9-1.7
2020-Jul-01 03:00N 81°48' E 008°54'1 0.9 310 / 81011.3 -1.7-2.1-1.7
2020-Jul-01 02:00N 81°48' E 008°48'0 0.0 320 / 81011.7 -1.5-1.9-1.7
2020-Jul-01 01:00N 81°48' E 008°48'0 0.0 310 / 61012.2 -1.5-1.7-1.7
2020-Jul-01 00:00N 81°48' E 008°48'0 0.0 300 / 81012.6 -1.5-2.0-1.7
2020-Jun-30 23:00N 81°48' E 008°48'0 0.0 310 / 81013.1 -1.3-1.6-1.7
2020-Jun-30 22:00N 81°48' E 008°48'0 0.0 310 / 81013.4 -1.1-1.6-1.7
2020-Jun-30 21:00N 81°48' E 008°48'0 0.0 310 / 61014.0 -0.8-1.2-1.7
2020-Jun-30 20:00N 81°48' E 008°48'1 0.9 320 / 61014.0 -0.9-1.4-1.7
2020-Jun-30 19:00N 81°48' E 008°54'0 0.0 320 / 61014.2 -0.9-1.1-1.7
2020-Jun-30 18:00N 81°48' E 008°54'0 0.0 310 / 81014.627.0 -0.8-1.2-1.7
2020-Jun-30 17:00N 81°48' E 008°54'0 0.0 330 / 61015.2 -0.7-1.0-1.7
2020-Jun-30 16:00N 81°48' E 008°54'0 0.0 330 / 61016.1 -0.6-1.0-1.7
2020-Jun-30 15:00N 81°48' E 008°54'1 0.9 330 / 61016.527.0 -0.5-0.8-1.7
2020-Jun-30 14:00N 81°48' E 009°00'0 0.0 340 / 61016.8 -0.6-1.0-1.7
2020-Jun-30 13:00N 81°48' E 009°00'0 0.0 330 / 61017.3 -0.6-0.9-1.7
2020-Jun-30 12:00N 81°48' E 009°00'0 0.0 330 / 61017.627.0 -0.6-1.0-1.7
2020-Jun-30 11:00N 81°48' E 009°00'0 0.0 330 / 61017.9 -0.6-0.9-1.7
2020-Jun-30 10:00N 81°48' E 009°00'0 0.0 340 / 61017.9 -0.8-1.1-1.7
2020-Jun-30 09:00N 81°48' E 009°00'0 0.0 330 / 61018.827.0 -0.9-1.1-1.7
2020-Jun-30 08:00N 81°48' E 009°00'0 0.0 340 / 41019.3 -1.0-1.3-1.7
2020-Jun-30 07:00N 81°48' E 009°00'0 0.0 340 / 61019.4 -1.2-1.5-1.6
2020-Jun-30 06:00N 81°48' E 009°00'0 0.0 340 / 61019.610.8 -1.3-1.6-1.6
2020-Jun-30 05:00N 81°48' E 009°00'0 0.0 340 / 61020.0 -1.4-1.7-1.7
2020-Jun-30 04:00N 81°48' E 009°00'1 0.9 350 / 41020.5 -1.6-2.0-1.7
2020-Jun-30 03:00N 81°48' E 008°54'0 0.0 350 / 61020.9 -1.5-1.8-1.7
2020-Jun-30 02:00N 81°48' E 008°54'0 0.0 350 / 61021.4 -2.0-2.2-1.7
2020-Jun-30 01:00N 81°48' E 008°54'0 0.0 350 / 61021.8 -2.2-2.4-1.7
2020-Jun-30 00:00N 81°48' E 008°54'0 0.0 340 / 81022.1 -2.0-2.2-1.7
2020-Jun-29 23:00N 81°48' E 008°54'0 0.0 340 / 61022.6 -1.9-2.2-1.6
2020-Jun-29 22:00N 81°48' E 008°54'0 0.0 340 / 61023.4 -1.9-2.3-1.6
2020-Jun-29 21:00N 81°48' E 008°54'0 0.0 340 / 61023.7 -1.9-2.3-1.7
2020-Jun-29 20:00N 81°48' E 008°54'1 0.9 340 / 41023.9 -2.0-2.1-1.7
2020-Jun-29 19:00N 81°48' E 009°00'0 0.0 350 / 61024.2 -2.1-2.4-1.7
2020-Jun-29 18:00N 81°48' E 009°00'0 0.0 010 / 61024.4 0.1 -1.9-2.0-1.6
2020-Jun-29 17:00N 81°48' E 009°00'1 0.9 010 / 61024.7 -2.2-2.6-1.7
2020-Jun-29 16:00N 81°48' E 009°06'0 0.0 010 / 61024.8 -1.9-2.2-1.7
2020-Jun-29 15:00N 81°48' E 009°06'0 0.0 010 / 81025.1 0.5 -1.6-1.8-1.7
2020-Jun-29 14:00N 81°48' E 009°06'0 0.0 020 / 81025.3 -1.7-1.8-1.7
2020-Jun-29 13:00N 81°48' E 009°06'0 0.0 020 / 81025.4 -1.6-1.8-1.7
2020-Jun-29 12:00N 81°48' E 009°06'1 0.9 030 / 61025.1 0.5 -1.1-1.1-1.7
2020-Jun-29 11:00N 81°48' E 009°12'0 0.0 040 / 61025.4 -1.9-2.1-1.6
2020-Jun-29 10:00N 81°48' E 009°12'0 0.0 030 / 81025.0 -1.8-2.1-1.7
2020-Jun-29 09:00N 81°48' E 009°12'0 0.0 030 / 81025.0 0.3 -1.8-2.2-1.6
2020-Jun-29 08:00N 81°48' E 009°12'0 0.0 030 / 81024.7 -2.0-2.2-1.6
2020-Jun-29 06:00N 81°48' E 009°12'0 0.0 040 / 81024.4 0.3 -2.2-2.5-1.7
2020-Jun-29 00:00N 81°48' E 009°12'0 0.0 350 / 81024.2 -1.7-2.1-1.7
2020-Jun-28 23:00N 81°48' E 009°12'0 0.0 350 / 81024.7 -1.6-1.9-1.7
2020-Jun-28 22:00N 81°48' E 009°12'0 0.0 340 / 101024.3 -1.1-1.4-1.7
2020-Jun-28 21:00N 81°48' E 009°12'0 0.0 340 / 81024.0 -1.1-1.2-1.7
2020-Jun-28 20:00N 81°48' E 009°12'1 0.9 340 / 81024.3 -1.2-1.3-1.6
2020-Jun-28 19:00N 81°48' E 009°18'0 0.0 340 / 101024.4 -1.1-1.1-1.7
2020-Jun-28 18:00N 81°48' E 009°18'0 0.0 350 / 101024.2 0.1 -0.9-1.1-1.6
2020-Jun-28 17:00N 81°48' E 009°18'1 0.9 340 / 121024.2 -0.8-1.0-1.7
2020-Jun-28 16:00N 81°48' E 009°24'6 6.0 340 / 121024.3 -0.7-1.0-1.7
2020-Jun-28 15:00N 81°54' E 009°24'0 0.0 350 / 121024.3 -0.8-1.2-1.7
2020-Jun-28 14:00N 81°54' E 009°24'1 0.8 340 / 121024.5 -0.8-1.2-1.7
2020-Jun-28 13:00N 81°54' E 009°30'0 0.0 350 / 141024.4 -1.0-1.2-1.7
2020-Jun-28 12:00N 81°54' E 009°30'0 0.0 360 / 141024.4 5.4 -1.3-1.7-1.7
2020-Jun-28 11:00N 81°54' E 009°30'0 0.0 360 / 161024.2 -1.2-1.5-1.7
2020-Jun-28 10:00N 81°54' E 009°30'0 0.0 350 / 141024.2 -1.0-1.1-1.7
2020-Jun-28 09:00N 81°54' E 009°30'0 0.0 360 / 141023.910.8 -0.8-1.1-1.6
2020-Jun-28 08:00N 81°54' E 009°30'0 0.0 350 / 141023.5 -0.7-1.1-1.6
2020-Jun-28 07:00N 81°54' E 009°30'0 0.0 360 / 141023.3 -0.7-1.1-1.7
2020-Jun-28 06:00N 81°54' E 009°30'0 0.0 360 / 141023.0 5.4 -0.5-0.7-1.7
2020-Jun-28 05:00N 81°54' E 009°30'0 0.0 360 / 141022.8 2.2 -0.5-0.7-1.7
2020-Jun-28 04:00N 81°54' E 009°30'0 0.0 360 / 141022.7 -0.4-0.5-1.7
2020-Jun-28 03:00N 81°54' E 009°30'0 0.0 360 / 141022.6 -0.3-0.5-1.6
2020-Jun-28 02:00N 81°54' E 009°30'0 0.0 350 / 141022.4 -0.3-0.4-1.7
2020-Jun-28 01:00N 81°54' E 009°30'0 0.0 350 / 121022.4 -0.3-0.4-1.6
2020-Jun-28 00:00N 81°54' E 009°30'0 0.0 350 / 121022.3 -0.4-0.7-1.7
2020-Jun-27 23:00N 81°54' E 009°30'0 0.0 350 / 121022.4 -0.5-0.5-1.7
2020-Jun-27 22:00N 81°54' E 009°30'1 0.8 360 / 121022.2 -0.4-0.4-1.6
2020-Jun-27 21:00N 81°54' E 009°36'0 0.0 360 / 121021.8 -0.2-0.2-1.7
2020-Jun-27 20:00N 81°54' E 009°36'1 0.8 350 / 101021.5 -0.1-0.1-1.7
2020-Jun-27 19:00N 81°54' E 009°42'0 0.0 350 / 101021.2 -0.1-0.3-1.6
2020-Jun-27 18:00N 81°54' E 009°42'1 0.8 350 / 101021.5 5.4 -0.1-0.1-1.7
2020-Jun-27 17:00N 81°54' E 009°48'0 0.0 340 / 101020.9 -0.1-0.1-1.6
2020-Jun-27 16:00N 81°54' E 009°48'0 0.0 350 / 101020.9 -0.1-0.1-1.6
2020-Jun-27 15:00N 81°54' E 009°48'0 0.0 340 / 121020.6 0.3 -0.1-0.1-1.6
2020-Jun-27 14:00N 81°54' E 009°48'1 0.8 330 / 121020.7 -0.1-0.1-1.7
2020-Jun-27 13:00N 81°54' E 009°54'0 0.0 340 / 121020.5 -0.0-0.1-1.7
2020-Jun-27 12:00N 81°54' E 009°54'6 6.0 340 / 121020.310.8 -0.0-0.0-1.7
2020-Jun-27 11:00N 82°00' E 009°54'0 0.0 350 / 121020.0 -0.0-0.2-1.6
2020-Jun-27 10:00N 82°00' E 009°54'0 0.0 350 / 121019.4 0.1-0.1-1.7
2020-Jun-27 09:00N 82°00' E 009°54'0 0.0 350 / 141019.010.8 0.1-0.2-1.6
2020-Jun-27 08:00N 82°00' E 009°54'0 0.0 350 / 141018.7 -0.0-0.2-1.7
2020-Jun-27 07:00N 82°00' E 009°54'0 0.0 350 / 141018.5 -0.1-0.1-1.6
2020-Jun-27 06:00N 82°00' E 009°54'1 0.8 340 / 141017.9 0.3 -0.0-0.1-1.6
2020-Jun-27 05:00N 82°00' E 009°48'0 0.0 350 / 121017.7 -0.0-0.0-1.6
2020-Jun-27 04:00N 82°00' E 009°48'0 0.0 350 / 141017.4 -0.1-0.1-1.7
2020-Jun-27 03:00N 82°00' E 009°48'0 0.0 340 / 141017.3 -0.0-0.0-1.6
2020-Jun-27 02:00N 82°00' E 009°48'0 0.0 350 / 121017.0 -0.0-0.1-1.6
2020-Jun-27 01:00N 82°00' E 009°48'0 0.0 340 / 121016.6 -0.0-0.0-1.6
2020-Jun-27 00:00N 82°00' E 009°48'0 0.0 340 / 141016.0 -0.0-0.2-1.6
2020-Jun-26 23:00N 82°00' E 009°48'0 0.0 330 / 121015.8 -0.0-0.1-1.6
2020-Jun-26 22:00N 82°00' E 009°48'1 0.8 330 / 121015.3 -0.1-0.3-1.6
2020-Jun-26 21:00N 82°00' E 009°54'0 0.0 330 / 121014.8 -0.1-0.2-1.7
2020-Jun-26 20:00N 82°00' E 009°54'1 0.8 330 / 141014.4 -0.2-0.4-1.6
2020-Jun-26 19:00N 82°00' E 010°00'0 0.0 340 / 141014.1 -0.5-0.7-1.7
2020-Jun-26 18:00N 82°00' E 010°00'0 0.0 330 / 121013.7 5.4 -0.3-0.6-1.7
2020-Jun-26 17:00N 82°00' E 010°00'1 0.8 340 / 141013.4 -0.4-0.9-1.7
2020-Jun-26 16:00N 82°00' E 010°06'0 0.0 340 / 141013.0 -0.3-0.8-1.7
2020-Jun-26 15:00N 82°00' E 010°06'1 0.8 320 / 121012.7 0.5 -0.1-0.2-1.7
2020-Jun-26 14:00N 82°00' E 010°12'0 0.0 320 / 101012.5 -0.2-0.2-1.7
2020-Jun-26 13:00N 82°00' E 010°12'0 0.0 330 / 101012.2 -0.2-0.2-1.6
2020-Jun-26 12:00N 82°00' E 010°12'0 0.0 330 / 101011.6 1.1 -0.0-0.2-1.6
2020-Jun-26 11:00N 82°00' E 010°12'0 0.0 300 / 101011.6 -0.1-0.1-1.7
2020-Jun-26 10:00N 82°00' E 010°12'0 0.0 290 / 101011.5 -0.1-0.1-1.7
2020-Jun-26 09:00N 82°00' E 010°12'0 0.0 270 / 101011.2 0.1 -0.1-0.1-1.7
2020-Jun-26 08:00N 82°00' E 010°12'6 6.1 280 / 101010.8 -0.0-0.0-1.7
2020-Jun-26 07:00N 82°06' E 010°06'0 0.0 290 / 101010.7 -0.0-0.1-1.7
2020-Jun-26 06:00N 82°06' E 010°06'0 0.0 280 / 101010.1 0.5 0.1 0.1-1.6
2020-Jun-26 05:00N 82°06' E 010°06'1 0.8 280 / 101010.1 0.2-0.0-1.6
2020-Jun-26 04:00N 82°06' E 010°00'0 0.0 260 / 121009.8 0.2 0.2-1.6
2020-Jun-26 03:00N 82°06' E 010°00'6 6.1 270 / 81010.0 0.3 0.3-1.7
2020-Jun-26 02:00N 82°00' E 009°54'0 0.0 250 / 101009.9 0.3 0.3-1.7
2020-Jun-26 01:00N 82°00' E 009°54'0 0.0 260 / 81010.0 0.3 0.3-1.7
2020-Jun-26 00:00N 82°00' E 009°54'0 0.0 270 / 81010.1 0.4 0.3-1.7
2020-Jun-25 23:00N 82°00' E 009°54'0 0.0 280 / 81010.0 0.5 0.4-1.7
2020-Jun-25 22:00N 82°00' E 009°54'   260 / 81009.6 0.6 0.5-1.7
Track history (hours):
 
Tides and Currents Weather Stations Pressure Air Temp Water Temp Dewpoint Dewpoint Depression Visibility Wind Speed Wind Dir Waves Ship Positions

Oceanographic research ship Polarstern (Germany)

Detailed information on ship capabilities available from University of Delaware's Ocean Information Center and ARCUS's ALIAS (Arctic Logistics Information and Support) project.

Last reported at 2020-Jul-05 22:00 UTC. Time now 2020-Jul-05 23:14 UTC.
Position N 81°42' E 005°48'.

Length 117.9 m; beam 25 m; draft 10.7 m.

Type: Other ship. MMSI: 211202460.

Wind from 050 at 17 knots

Barometer 1012.5 mb
Air temperature 0.4 ° C
Dewpoint 0.4 ° C
Water temperature -1.7 ° C

Date/timePositionNaut miles runAvg speedWind from/ knotsBaromVisibWave heightAir tempDewpointWater temp
2020-Jul-05 22:00N 81°42' E 005°48'0 0.0 050 / 171012.5 0.4 0.4-1.7
2020-Jul-05 21:00N 81°42' E 005°48'0 0.0 050 / 161012.2 0.7 0.1-1.7
2020-Jul-05 20:00N 81°42' E 005°48'1 0.9 050 / 161012.7 0.6 0.5-1.7
2020-Jul-05 19:00N 81°42' E 005°54'1 0.9 030 / 171012.5 0.5 0.4-1.6
2020-Jul-05 18:00N 81°42' E 006°00'0 0.0 040 / 171013.0 5.4 0.4 0.4-1.7
2020-Jul-05 17:00N 81°42' E 006°00'1 0.9 040 / 171013.4 0.3 0.1-1.7
2020-Jul-05 16:00N 81°42' E 006°06'0 0.0 040 / 161013.6 0.3 0.1-1.7
2020-Jul-05 15:00N 81°42' E 006°06'1 0.9 040 / 171014.010.8 0.4 0.1-1.6
2020-Jul-05 14:00N 81°42' E 006°12'0 0.0 040 / 161014.3 0.5-0.0-1.6
2020-Jul-05 13:00N 81°42' E 006°12'1 0.9 020 / 161014.7 0.2 0.1-1.6
2020-Jul-05 12:00N 81°42' E 006°18'0 0.0 030 / 171015.4 0.5 0.2 0.2-1.6
2020-Jul-05 11:00N 81°42' E 006°18'0 0.0 030 / 171015.8 0.4 0.4-1.7
2020-Jul-05 10:00N 81°42' E 006°18'1 0.9 030 / 161016.2 0.2 0.2-1.7
2020-Jul-05 09:00N 81°42' E 006°24'0 0.0 050 / 121016.2 0.3 0.2 0.2-1.7
2020-Jul-05 08:00N 81°42' E 006°24'1 0.9 050 / 141016.7 0.3-0.1-1.6
2020-Jul-05 07:00N 81°42' E 006°30'0 0.0 050 / 171016.9 -0.2-0.2-1.6
2020-Jul-05 06:00N 81°42' E 006°30'1 0.9 050 / 161016.9 2.2 0.4-0.2-1.7
2020-Jul-05 05:00N 81°42' E 006°36'0 0.0 050 / 171017.2 -0.6-0.6-1.6
2020-Jul-05 04:00N 81°42' E 006°36'0 0.0 050 / 141017.1 -1.4-1.6-1.7
2020-Jul-05 03:00N 81°42' E 006°36'1 0.9 050 / 121017.3 -1.1-1.6-1.6
2020-Jul-05 02:00N 81°42' E 006°30'0 0.0 050 / 101017.3 -1.4-1.4-1.6
2020-Jul-05 01:00N 81°42' E 006°30'0 0.0 050 / 101017.0 0.2-0.3-1.6
2020-Jul-05 00:00N 81°42' E 006°30'0 0.0 060 / 61016.8 1.3-0.1-1.7
2020-Jul-04 23:00N 81°42' E 006°30'0 0.0 090 / 81017.0 0.1-0.1-1.7
2020-Jul-04 22:00N 81°42' E 006°30'0 0.0 100 / 101016.9 0.2 0.2-1.7
2020-Jul-04 21:00N 81°42' E 006°30'1 0.9 090 / 81016.3 0.2 0.2-1.7
2020-Jul-04 20:00N 81°42' E 006°36'0 0.0 090 / 101015.7 0.3 0.3-1.6
2020-Jul-04 19:00N 81°42' E 006°36'0 0.0 110 / 101014.9 0.4 0.4-1.7
2020-Jul-04 18:00N 81°42' E 006°36'0 0.0 120 / 101014.210.8 0.6 0.6-1.7
2020-Jul-04 17:00N 81°42' E 006°36'0 0.0 130 / 121013.8 0.6 0.6-1.7
2020-Jul-04 16:00N 81°42' E 006°36'1 0.9 130 / 121012.8 0.3 0.3-1.7
2020-Jul-04 15:00N 81°42' E 006°42'0 0.0 130 / 121012.1 5.4 0.5 0.5-1.7
2020-Jul-04 14:00N 81°42' E 006°42'0 0.0 140 / 121011.3 0.4 0.4-1.7
2020-Jul-04 13:00N 81°42' E 006°42'0 0.0 130 / 121010.6 0.2 0.2-1.7
2020-Jul-04 12:00N 81°42' E 006°42'0 0.0 130 / 141009.2 5.4 0.2 0.2-1.7
2020-Jul-04 11:00N 81°42' E 006°42'1 0.9 110 / 141008.2 0.6 0.6-1.7
2020-Jul-04 10:00N 81°42' E 006°48'0 0.0 100 / 161007.1 0.8 0.8-1.6
2020-Jul-04 09:00N 81°42' E 006°48'1 0.9 080 / 171006.710.8 0.3 0.3-1.7
2020-Jul-04 08:00N 81°42' E 006°54'0 0.0 080 / 171006.2 0.1 0.1-1.7
2020-Jul-04 07:00N 81°42' E 006°54'0 0.0 080 / 171006.3 0.2 0.2-1.7
2020-Jul-04 06:00N 81°42' E 006°54'1 0.9 080 / 161006.010.8 0.3 0.3-1.7
2020-Jul-04 05:00N 81°42' E 007°00'0 0.0 080 / 161005.9 0.1 0.1-1.7
2020-Jul-04 04:00N 81°42' E 007°00'0 0.0 080 / 161005.9 -0.1-0.1-1.7
2020-Jul-04 03:00N 81°42' E 007°00'0 0.0 080 / 161006.0 -0.2-0.2-1.6
2020-Jul-04 02:00N 81°42' E 007°00'0 0.0 080 / 161005.9 -0.2-0.2-1.6
2020-Jul-04 01:00N 81°42' E 007°00'0 0.0 080 / 171005.8 -0.1-0.1-1.7
2020-Jul-04 00:00N 81°42' E 007°00'0 0.0 080 / 191005.0 -0.2-0.2-1.7
2020-Jul-03 23:00N 81°42' E 007°00'1 0.9 080 / 171004.9 -0.0-0.0-1.7
2020-Jul-03 22:00N 81°42' E 007°06'0 0.0 080 / 211004.7 0.1 0.1-1.7
2020-Jul-03 21:00N 81°42' E 007°06'0 0.0 080 / 171004.3 0.2 0.2-1.7
2020-Jul-03 20:00N 81°42' E 007°06'1 0.9 080 / 171004.0 0.3 0.3-1.7
2020-Jul-03 19:00N 81°42' E 007°12'0 0.0 080 / 171003.6 0.1 0.1-1.7
2020-Jul-03 18:00N 81°42' E 007°12'1 0.9 080 / 171003.2 0.3 0.1 0.1-1.7
2020-Jul-03 17:00N 81°42' E 007°18'0 0.0 080 / 231002.8 -0.0-0.0-1.7
2020-Jul-03 16:00N 81°42' E 007°18'1 0.9 080 / 191002.4 0.1 0.1-1.7
2020-Jul-03 15:00N 81°42' E 007°24'0 0.0 070 / 171002.3 0.3 0.2 0.2-1.7
2020-Jul-03 14:00N 81°42' E 007°24'1 0.9 070 / 191002.3 0.3 0.3-1.7
2020-Jul-03 13:00N 81°42' E 007°30'0 0.0 060 / 211002.0 0.4 0.3-1.7
2020-Jul-03 12:00N 81°42' E 007°30'1 0.9 050 / 211001.810.8 0.5 0.3-1.7
2020-Jul-03 11:00N 81°42' E 007°36'1 0.9 050 / 211001.9 0.5 0.1-1.7
2020-Jul-03 10:00N 81°42' E 007°42'0 0.0 050 / 211002.0 1.1 0.5-1.7
2020-Jul-03 09:00N 81°42' E 007°42'1 0.9 050 / 211002.2 1.1 0.9 0.8-1.7
2020-Jul-03 08:00N 81°42' E 007°48'0 0.0 040 / 211002.2 0.5 0.3-1.7
2020-Jul-03 07:00N 81°42' E 007°48'1 0.9 030 / 211002.6 0.2 0.2-1.6
2020-Jul-03 06:00N 81°42' E 007°54'0 0.0 040 / 191002.9 0.5 0.2 0.1-1.7
2020-Jul-03 05:00N 81°42' E 007°54'1 0.9 040 / 191003.1 0.2-0.0-1.7
2020-Jul-03 04:00N 81°42' E 008°00'0 0.0 050 / 171003.2 0.2 0.2-1.7
2020-Jul-03 03:00N 81°42' E 008°00'0 0.0 050 / 171003.3 0.6 0.2-1.7
2020-Jul-03 02:00N 81°42' E 008°00'0 0.0 050 / 171003.4 0.8 0.5-1.7
2020-Jul-03 01:00N 81°42' E 008°00'0 0.0 050 / 191003.4 0.4 0.4-1.6
2020-Jul-03 00:00N 81°42' E 008°00'0 0.0 050 / 171003.7 0.5 0.4-1.6
2020-Jul-02 23:00N 81°42' E 008°00'1 0.9 050 / 171003.8 0.3 0.3-1.6
2020-Jul-02 22:00N 81°42' E 008°06'0 0.0 050 / 171003.7 0.4 0.4-1.6
2020-Jul-02 21:00N 81°42' E 008°06'0 0.0 040 / 161003.8 0.2 0.2-1.6
2020-Jul-02 20:00N 81°42' E 008°06'1 0.9 030 / 161004.1 -0.0-0.0-1.6
2020-Jul-02 19:00N 81°42' E 008°12'0 0.0 020 / 171004.3 -0.0-0.0-1.6
2020-Jul-02 18:00N 81°42' E 008°12'1 0.9 010 / 171004.7 5.4 -0.1-0.3-1.6
2020-Jul-02 17:00N 81°42' E 008°18'0 0.0 010 / 171005.1 -0.1-0.2-1.6
2020-Jul-02 16:00N 81°42' E 008°18'1 0.9 360 / 171005.3 -0.2-0.2-1.6
2020-Jul-02 15:00N 81°42' E 008°24'0 0.0 360 / 161005.8 5.4 -0.3-0.3-1.7
2020-Jul-02 14:00N 81°42' E 008°24'0 0.0 360 / 161006.1 -0.5-0.6-1.7
2020-Jul-02 13:00N 81°42' E 008°24'1 0.9 360 / 161006.7 -0.9-1.2-1.7
2020-Jul-02 12:00N 81°42' E 008°30'0 0.0 360 / 161007.0 5.4 -1.0-1.4-1.7
2020-Jul-02 11:00N 81°42' E 008°30'0 0.0 360 / 161007.6 -1.4-1.8-1.7
2020-Jul-02 10:00N 81°42' E 008°30'1 0.9 360 / 161008.0 -1.6-2.0-1.7
2020-Jul-02 09:00N 81°42' E 008°36'0 0.0 010 / 161008.2 5.4 -1.8-2.3-1.7
2020-Jul-02 08:00N 81°42' E 008°36'0 0.0 010 / 161008.4 -2.1-2.5-1.7
2020-Jul-02 07:00N 81°42' E 008°36'6 6.0 010 / 161008.7 -2.8-3.1-1.7
2020-Jul-02 06:00N 81°48' E 008°36'1 0.9 010 / 141008.5 0.5 -3.1-3.5-1.7
2020-Jul-02 05:00N 81°48' E 008°42'0 0.0 010 / 121008.4 -2.8-3.1-1.6
2020-Jul-02 04:00N 81°48' E 008°42'0 0.0 010 / 101008.5 -3.2-3.5-1.6
2020-Jul-02 03:00N 81°48' E 008°42'0 0.0 020 / 121008.7 -3.3-3.5-1.6
2020-Jul-02 02:00N 81°48' E 008°42'0 0.0 010 / 101008.8 -2.8-3.2-1.7
2020-Jul-02 01:00N 81°48' E 008°42'0 0.0 020 / 101009.0 -2.4-2.5-1.7
2020-Jul-02 00:00N 81°48' E 008°42'0 0.0 040 / 121009.3 -1.7-2.1-1.6
2020-Jul-01 23:00N 81°48' E 008°42'0 0.0 010 / 101009.5 -2.1-2.4-1.6
2020-Jul-01 22:00N 81°48' E 008°42'0 0.0 010 / 81009.4 -1.9-2.0-1.7
2020-Jul-01 21:00N 81°48' E 008°42'0 0.0 030 / 101009.5 -1.4-1.6-1.7
2020-Jul-01 20:00N 81°48' E 008°42'1 0.9 010 / 61009.4 -1.2-1.6-1.7
2020-Jul-01 19:00N 81°48' E 008°48'0 0.0 360 / 61009.1 -0.9-1.2-1.7
2020-Jul-01 18:00N 81°48' E 008°48'0 0.0 060 / 41008.827.0 -0.6-1.3-1.7
2020-Jul-01 17:00N 81°48' E 008°48'0 0.0 060 / 41009.2 -0.1-1.0-1.7
2020-Jul-01 16:00N 81°48' E 008°48'0 0.0 030 / 41009.5 -0.4-1.1-1.7
2020-Jul-01 15:00N 81°48' E 008°48'1 0.9 020 / 61009.427.0 -0.4-0.9-1.7
2020-Jul-01 14:00N 81°48' E 008°54'0 0.0 330 / 61009.8 -0.3-0.9-1.7
2020-Jul-01 13:00N 81°48' E 008°54'0 0.0 340 / 21009.7 -0.1-0.8-1.7
2020-Jul-01 12:00N 81°48' E 008°54'0 0.0 330 / 21009.727.0 -0.1-1.1-1.7
2020-Jul-01 11:00N 81°48' E 008°54'0 0.0 090 / 41009.9 -0.6-1.3-1.7
2020-Jul-01 10:00N 81°48' E 008°54'0 0.0 320 / 61009.8 -0.7-1.1-1.7
2020-Jul-01 09:00N 81°48' E 008°54'0 0.0 360 / 41009.827.0 -0.9-1.2-1.7
2020-Jul-01 08:00N 81°48' E 008°54'0 0.0 360 / 41010.0 -1.2-1.7-1.7
2020-Jul-01 07:00N 81°48' E 008°54'0 0.0 020 / 41010.5 -1.3-1.7-1.7
2020-Jul-01 06:00N 81°48' E 008°54'0 0.0 340 / 41010.427.0 -1.3-1.8-1.7
2020-Jul-01 05:00N 81°48' E 008°54'0 0.0 330 / 41010.7 -1.3-2.1-1.7
2020-Jul-01 04:00N 81°48' E 008°54'0 0.0 340 / 41011.0 -1.4-1.9-1.7
2020-Jul-01 03:00N 81°48' E 008°54'1 0.9 310 / 81011.3 -1.7-2.1-1.7
2020-Jul-01 02:00N 81°48' E 008°48'0 0.0 320 / 81011.7 -1.5-1.9-1.7
2020-Jul-01 01:00N 81°48' E 008°48'0 0.0 310 / 61012.2 -1.5-1.7-1.7
2020-Jul-01 00:00N 81°48' E 008°48'0 0.0 300 / 81012.6 -1.5-2.0-1.7
2020-Jun-30 23:00N 81°48' E 008°48'0 0.0 310 / 81013.1 -1.3-1.6-1.7
2020-Jun-30 22:00N 81°48' E 008°48'0 0.0 310 / 81013.4 -1.1-1.6-1.7
2020-Jun-30 21:00N 81°48' E 008°48'0 0.0 310 / 61014.0 -0.8-1.2-1.7
2020-Jun-30 20:00N 81°48' E 008°48'1 0.9 320 / 61014.0 -0.9-1.4-1.7
2020-Jun-30 19:00N 81°48' E 008°54'0 0.0 320 / 61014.2 -0.9-1.1-1.7
2020-Jun-30 18:00N 81°48' E 008°54'0 0.0 310 / 81014.627.0 -0.8-1.2-1.7
2020-Jun-30 17:00N 81°48' E 008°54'0 0.0 330 / 61015.2 -0.7-1.0-1.7
2020-Jun-30 16:00N 81°48' E 008°54'0 0.0 330 / 61016.1 -0.6-1.0-1.7
2020-Jun-30 15:00N 81°48' E 008°54'1 0.9 330 / 61016.527.0 -0.5-0.8-1.7
2020-Jun-30 14:00N 81°48' E 009°00'0 0.0 340 / 61016.8 -0.6-1.0-1.7
2020-Jun-30 13:00N 81°48' E 009°00'0 0.0 330 / 61017.3 -0.6-0.9-1.7
2020-Jun-30 12:00N 81°48' E 009°00'0 0.0 330 / 61017.627.0 -0.6-1.0-1.7
2020-Jun-30 11:00N 81°48' E 009°00'0 0.0 330 / 61017.9 -0.6-0.9-1.7
2020-Jun-30 10:00N 81°48' E 009°00'0 0.0 340 / 61017.9 -0.8-1.1-1.7
2020-Jun-30 09:00N 81°48' E 009°00'0 0.0 330 / 61018.827.0 -0.9-1.1-1.7
2020-Jun-30 08:00N 81°48' E 009°00'0 0.0 340 / 41019.3 -1.0-1.3-1.7
2020-Jun-30 07:00N 81°48' E 009°00'0 0.0 340 / 61019.4 -1.2-1.5-1.6
2020-Jun-30 06:00N 81°48' E 009°00'0 0.0 340 / 61019.610.8 -1.3-1.6-1.6
2020-Jun-30 05:00N 81°48' E 009°00'0 0.0 340 / 61020.0 -1.4-1.7-1.7
2020-Jun-30 04:00N 81°48' E 009°00'1 0.9 350 / 41020.5 -1.6-2.0-1.7
2020-Jun-30 03:00N 81°48' E 008°54'0 0.0 350 / 61020.9 -1.5-1.8-1.7
2020-Jun-30 02:00N 81°48' E 008°54'0 0.0 350 / 61021.4 -2.0-2.2-1.7
2020-Jun-30 01:00N 81°48' E 008°54'0 0.0 350 / 61021.8 -2.2-2.4-1.7
2020-Jun-30 00:00N 81°48' E 008°54'0 0.0 340 / 81022.1 -2.0-2.2-1.7
2020-Jun-29 23:00N 81°48' E 008°54'0 0.0 340 / 61022.6 -1.9-2.2-1.6
2020-Jun-29 22:00N 81°48' E 008°54'0 0.0 340 / 61023.4 -1.9-2.3-1.6
2020-Jun-29 21:00N 81°48' E 008°54'0 0.0 340 / 61023.7 -1.9-2.3-1.7
2020-Jun-29 20:00N 81°48' E 008°54'1 0.9 340 / 41023.9 -2.0-2.1-1.7
2020-Jun-29 19:00N 81°48' E 009°00'0 0.0 350 / 61024.2 -2.1-2.4-1.7
2020-Jun-29 18:00N 81°48' E 009°00'0 0.0 010 / 61024.4 0.1 -1.9-2.0-1.6
2020-Jun-29 17:00N 81°48' E 009°00'1 0.9 010 / 61024.7 -2.2-2.6-1.7
2020-Jun-29 16:00N 81°48' E 009°06'0 0.0 010 / 61024.8 -1.9-2.2-1.7
2020-Jun-29 15:00N 81°48' E 009°06'0 0.0 010 / 81025.1 0.5 -1.6-1.8-1.7
2020-Jun-29 14:00N 81°48' E 009°06'0 0.0 020 / 81025.3 -1.7-1.8-1.7
2020-Jun-29 13:00N 81°48' E 009°06'0 0.0 020 / 81025.4 -1.6-1.8-1.7
2020-Jun-29 12:00N 81°48' E 009°06'1 0.9 030 / 61025.1 0.5 -1.1-1.1-1.7
2020-Jun-29 11:00N 81°48' E 009°12'0 0.0 040 / 61025.4 -1.9-2.1-1.6
2020-Jun-29 10:00N 81°48' E 009°12'0 0.0 030 / 81025.0 -1.8-2.1-1.7
2020-Jun-29 09:00N 81°48' E 009°12'0 0.0 030 / 81025.0 0.3 -1.8-2.2-1.6
2020-Jun-29 08:00N 81°48' E 009°12'0 0.0 030 / 81024.7 -2.0-2.2-1.6
2020-Jun-29 06:00N 81°48' E 009°12'0 0.0 040 / 81024.4 0.3 -2.2-2.5-1.7
2020-Jun-29 00:00N 81°48' E 009°12'0 0.0 350 / 81024.2 -1.7-2.1-1.7
2020-Jun-28 23:00N 81°48' E 009°12'0 0.0 350 / 81024.7 -1.6-1.9-1.7
2020-Jun-28 22:00N 81°48' E 009°12'0 0.0 340 / 101024.3 -1.1-1.4-1.7
2020-Jun-28 21:00N 81°48' E 009°12'0 0.0 340 / 81024.0 -1.1-1.2-1.7
2020-Jun-28 20:00N 81°48' E 009°12'1 0.9 340 / 81024.3 -1.2-1.3-1.6
2020-Jun-28 19:00N 81°48' E 009°18'0 0.0 340 / 101024.4 -1.1-1.1-1.7
2020-Jun-28 18:00N 81°48' E 009°18'0 0.0 350 / 101024.2 0.1 -0.9-1.1-1.6
2020-Jun-28 17:00N 81°48' E 009°18'1 0.9 340 / 121024.2 -0.8-1.0-1.7
2020-Jun-28 16:00N 81°48' E 009°24'6 6.0 340 / 121024.3 -0.7-1.0-1.7
2020-Jun-28 15:00N 81°54' E 009°24'0 0.0 350 / 121024.3 -0.8-1.2-1.7
2020-Jun-28 14:00N 81°54' E 009°24'1 0.8 340 / 121024.5 -0.8-1.2-1.7
2020-Jun-28 13:00N 81°54' E 009°30'0 0.0 350 / 141024.4 -1.0-1.2-1.7
2020-Jun-28 12:00N 81°54' E 009°30'0 0.0 360 / 141024.4 5.4 -1.3-1.7-1.7
2020-Jun-28 11:00N 81°54' E 009°30'0 0.0 360 / 161024.2 -1.2-1.5-1.7
2020-Jun-28 10:00N 81°54' E 009°30'0 0.0 350 / 141024.2 -1.0-1.1-1.7
2020-Jun-28 09:00N 81°54' E 009°30'0 0.0 360 / 141023.910.8 -0.8-1.1-1.6
2020-Jun-28 08:00N 81°54' E 009°30'0 0.0 350 / 141023.5 -0.7-1.1-1.6
2020-Jun-28 07:00N 81°54' E 009°30'0 0.0 360 / 141023.3 -0.7-1.1-1.7
2020-Jun-28 06:00N 81°54' E 009°30'0 0.0 360 / 141023.0 5.4 -0.5-0.7-1.7
2020-Jun-28 05:00N 81°54' E 009°30'0 0.0 360 / 141022.8 2.2 -0.5-0.7-1.7
2020-Jun-28 04:00N 81°54' E 009°30'0 0.0 360 / 141022.7 -0.4-0.5-1.7
2020-Jun-28 03:00N 81°54' E 009°30'0 0.0 360 / 141022.6 -0.3-0.5-1.6
2020-Jun-28 02:00N 81°54' E 009°30'0 0.0 350 / 141022.4 -0.3-0.4-1.7
2020-Jun-28 01:00N 81°54' E 009°30'0 0.0 350 / 121022.4 -0.3-0.4-1.6
2020-Jun-28 00:00N 81°54' E 009°30'0 0.0 350 / 121022.3 -0.4-0.7-1.7
2020-Jun-27 23:00N 81°54' E 009°30'0 0.0 350 / 121022.4 -0.5-0.5-1.7
2020-Jun-27 22:00N 81°54' E 009°30'1 0.8 360 / 121022.2 -0.4-0.4-1.6
2020-Jun-27 21:00N 81°54' E 009°36'0 0.0 360 / 121021.8 -0.2-0.2-1.7
2020-Jun-27 20:00N 81°54' E 009°36'1 0.8 350 / 101021.5 -0.1-0.1-1.7
2020-Jun-27 19:00N 81°54' E 009°42'0 0.0 350 / 101021.2 -0.1-0.3-1.6
2020-Jun-27 18:00N 81°54' E 009°42'1 0.8 350 / 101021.5 5.4 -0.1-0.1-1.7
2020-Jun-27 17:00N 81°54' E 009°48'0 0.0 340 / 101020.9 -0.1-0.1-1.6
2020-Jun-27 16:00N 81°54' E 009°48'0 0.0 350 / 101020.9 -0.1-0.1-1.6
2020-Jun-27 15:00N 81°54' E 009°48'0 0.0 340 / 121020.6 0.3 -0.1-0.1-1.6
2020-Jun-27 14:00N 81°54' E 009°48'1 0.8 330 / 121020.7 -0.1-0.1-1.7
2020-Jun-27 13:00N 81°54' E 009°54'0 0.0 340 / 121020.5 -0.0-0.1-1.7
2020-Jun-27 12:00N 81°54' E 009°54'6 6.0 340 / 121020.310.8 -0.0-0.0-1.7
2020-Jun-27 11:00N 82°00' E 009°54'0 0.0 350 / 121020.0 -0.0-0.2-1.6
2020-Jun-27 10:00N 82°00' E 009°54'0 0.0 350 / 121019.4 0.1-0.1-1.7
2020-Jun-27 09:00N 82°00' E 009°54'0 0.0 350 / 141019.010.8 0.1-0.2-1.6
2020-Jun-27 08:00N 82°00' E 009°54'0 0.0 350 / 141018.7 -0.0-0.2-1.7
2020-Jun-27 07:00N 82°00' E 009°54'0 0.0 350 / 141018.5 -0.1-0.1-1.6
2020-Jun-27 06:00N 82°00' E 009°54'1 0.8 340 / 141017.9 0.3 -0.0-0.1-1.6
2020-Jun-27 05:00N 82°00' E 009°48'0 0.0 350 / 121017.7 -0.0-0.0-1.6
2020-Jun-27 04:00N 82°00' E 009°48'0 0.0 350 / 141017.4 -0.1-0.1-1.7
2020-Jun-27 03:00N 82°00' E 009°48'0 0.0 340 / 141017.3 -0.0-0.0-1.6
2020-Jun-27 02:00N 82°00' E 009°48'0 0.0 350 / 121017.0 -0.0-0.1-1.6
2020-Jun-27 01:00N 82°00' E 009°48'0 0.0 340 / 121016.6 -0.0-0.0-1.6
2020-Jun-27 00:00N 82°00' E 009°48'0 0.0 340 / 141016.0 -0.0-0.2-1.6
2020-Jun-26 23:00N 82°00' E 009°48'0 0.0 330 / 121015.8 -0.0-0.1-1.6
2020-Jun-26 22:00N 82°00' E 009°48'1 0.8 330 / 121015.3 -0.1-0.3-1.6
2020-Jun-26 21:00N 82°00' E 009°54'0 0.0 330 / 121014.8 -0.1-0.2-1.7
2020-Jun-26 20:00N 82°00' E 009°54'1 0.8 330 / 141014.4 -0.2-0.4-1.6
2020-Jun-26 19:00N 82°00' E 010°00'0 0.0 340 / 141014.1 -0.5-0.7-1.7
2020-Jun-26 18:00N 82°00' E 010°00'0 0.0 330 / 121013.7 5.4 -0.3-0.6-1.7
2020-Jun-26 17:00N 82°00' E 010°00'1 0.8 340 / 141013.4 -0.4-0.9-1.7
2020-Jun-26 16:00N 82°00' E 010°06'0 0.0 340 / 141013.0 -0.3-0.8-1.7
2020-Jun-26 15:00N 82°00' E 010°06'1 0.8 320 / 121012.7 0.5 -0.1-0.2-1.7
2020-Jun-26 14:00N 82°00' E 010°12'0 0.0 320 / 101012.5 -0.2-0.2-1.7
2020-Jun-26 13:00N 82°00' E 010°12'0 0.0 330 / 101012.2 -0.2-0.2-1.6
2020-Jun-26 12:00N 82°00' E 010°12'0 0.0 330 / 101011.6 1.1 -0.0-0.2-1.6
2020-Jun-26 11:00N 82°00' E 010°12'0 0.0 300 / 101011.6 -0.1-0.1-1.7
2020-Jun-26 10:00N 82°00' E 010°12'0 0.0 290 / 101011.5 -0.1-0.1-1.7
2020-Jun-26 09:00N 82°00' E 010°12'0 0.0 270 / 101011.2 0.1 -0.1-0.1-1.7
2020-Jun-26 08:00N 82°00' E 010°12'6 6.1 280 / 101010.8 -0.0-0.0-1.7
2020-Jun-26 07:00N 82°06' E 010°06'0 0.0 290 / 101010.7 -0.0-0.1-1.7
2020-Jun-26 06:00N 82°06' E 010°06'0 0.0 280 / 101010.1 0.5 0.1 0.1-1.6
2020-Jun-26 05:00N 82°06' E 010°06'1 0.8 280 / 101010.1 0.2-0.0-1.6
2020-Jun-26 04:00N 82°06' E 010°00'0 0.0 260 / 121009.8 0.2 0.2-1.6
2020-Jun-26 03:00N 82°06' E 010°00'6 6.1 270 / 81010.0 0.3 0.3-1.7
2020-Jun-26 02:00N 82°00' E 009°54'0 0.0 250 / 101009.9 0.3 0.3-1.7
2020-Jun-26 01:00N 82°00' E 009°54'0 0.0 260 / 81010.0 0.3 0.3-1.7
2020-Jun-26 00:00N 82°00' E 009°54'0 0.0 270 / 81010.1 0.4 0.3-1.7
2020-Jun-25 23:00N 82°00' E 009°54'0 0.0 280 / 81010.0 0.5 0.4-1.7
2020-Jun-25 22:00N 82°00' E 009°54'   260 / 81009.6 0.6 0.5-1.7

Dump ship's entire track history